createdAt,value
2017-08-21T00:00:14.623Z,1017.07
2017-08-21T00:01:09.655Z,1017.09
2017-08-21T00:02:10.806Z,1017.09
2017-08-21T00:03:10.909Z,1017.07
2017-08-21T00:04:11.106Z,1017.02
2017-08-21T00:05:10.807Z,1017.07
2017-08-21T00:06:11.929Z,1017.03
2017-08-21T00:07:13.070Z,1016.99
2017-08-21T00:08:06.944Z,1016.97
2017-08-21T00:09:07.348Z,1016.99
2017-08-21T00:10:02.264Z,1017.01
2017-08-21T00:10:56.964Z,1017.00
2017-08-21T00:11:57.423Z,1017.06
2017-08-21T00:12:52.117Z,1017.04
2017-08-21T00:13:47.412Z,1017.05
2017-08-21T00:14:47.157Z,1017.09
2017-08-21T00:15:42.122Z,1017.09
2017-08-21T00:16:37.259Z,1017.08
2017-08-21T00:17:43.279Z,1017.06
2017-08-21T00:18:37.596Z,1017.07
2017-08-21T00:19:38.227Z,1017.07
2017-08-21T00:20:38.305Z,1017.10
2017-08-21T00:21:38.328Z,1017.11
2017-08-21T00:22:33.395Z,1017.10
2017-08-21T00:23:27.408Z,1017.08
2017-08-21T00:24:27.471Z,1017.06
2017-08-21T00:25:22.473Z,1017.05
2017-08-21T00:26:28.515Z,1017.05
2017-08-21T00:27:23.632Z,1017.04
2017-08-21T00:28:17.629Z,1017.00
2017-08-21T00:29:17.900Z,1016.99
2017-08-21T00:30:17.664Z,1016.97
2017-08-21T00:31:12.730Z,1016.98
2017-08-21T00:32:06.674Z,1016.99
2017-08-21T00:33:07.236Z,1016.97
2017-08-21T00:34:02.021Z,1016.97
2017-08-21T00:34:56.932Z,1016.96
2017-08-21T00:35:57.885Z,1016.97
2017-08-21T00:36:57.863Z,1016.99
2017-08-21T00:37:57.833Z,1016.99
2017-08-21T00:38:53.102Z,1016.99
2017-08-21T00:39:46.913Z,1017.01
2017-08-21T00:40:46.935Z,1017.01
2017-08-21T00:41:42.007Z,1016.96
2017-08-21T00:42:42.042Z,1017.00
2017-08-21T00:43:36.393Z,1017.01
2017-08-21T00:44:36.130Z,1017.01
2017-08-21T00:45:31.135Z,1016.98
2017-08-21T00:46:31.531Z,1016.97
2017-08-21T00:47:31.268Z,1017.02
2017-08-21T00:48:31.267Z,1017.00
2017-08-21T00:49:25.315Z,1016.97
2017-08-21T00:50:25.333Z,1016.97
2017-08-21T00:51:20.707Z,1016.96
2017-08-21T00:52:15.620Z,1016.97
2017-08-21T00:53:15.550Z,1016.96
2017-08-21T00:54:10.822Z,1016.97
2017-08-21T00:55:05.487Z,1016.98
2017-08-21T00:56:06.419Z,1016.94
2017-08-21T00:57:06.624Z,1016.97
2017-08-21T00:58:06.636Z,1016.91
2017-08-21T00:59:02.009Z,1016.94
2017-08-21T00:59:55.593Z,1016.95
2017-08-21T01:00:55.771Z,1016.94
2017-08-21T01:01:50.779Z,1016.93
2017-08-21T01:02:50.746Z,1016.91
2017-08-21T01:03:45.319Z,1016.95
2017-08-21T01:04:44.786Z,1016.95
2017-08-21T01:05:39.858Z,1016.93
2017-08-21T01:06:34.874Z,1016.94
2017-08-21T01:07:34.885Z,1016.90
2017-08-21T01:08:29.978Z,1016.94
2017-08-21T01:09:30.356Z,1016.91
2017-08-21T01:10:30.029Z,1016.94
2017-08-21T01:11:29.984Z,1016.92
2017-08-21T01:12:24.039Z,1016.91
2017-08-21T01:13:24.032Z,1016.89
2017-08-21T01:14:19.044Z,1016.93
2017-08-21T01:15:14.178Z,1016.92
2017-08-21T01:16:15.126Z,1016.93
2017-08-21T01:17:15.149Z,1016.92
2017-08-21T01:18:15.221Z,1016.91
2017-08-21T01:19:10.628Z,1016.88
2017-08-21T01:20:04.412Z,1016.91
2017-08-21T01:21:04.344Z,1016.88
2017-08-21T01:21:59.606Z,1016.92
2017-08-21T01:22:59.457Z,1016.91
2017-08-21T01:23:53.827Z,1016.94
2017-08-21T01:24:53.437Z,1016.94
2017-08-21T01:25:48.815Z,1016.91
2017-08-21T01:26:43.651Z,1016.95
2017-08-21T01:27:43.968Z,1016.92
2017-08-21T01:28:38.957Z,1016.93
2017-08-21T01:29:33.996Z,1016.95
2017-08-21T01:30:34.646Z,1016.95
2017-08-21T01:31:34.676Z,1016.94
2017-08-21T01:32:34.759Z,1016.93
2017-08-21T01:33:35.087Z,1016.90
2017-08-21T01:34:35.707Z,1016.95
2017-08-21T01:35:36.790Z,1016.92
2017-08-21T01:36:30.807Z,1016.91
2017-08-21T01:37:30.878Z,1016.88
2017-08-21T01:38:26.312Z,1016.88
2017-08-21T01:39:21.188Z,1016.86
2017-08-21T01:40:21.198Z,1016.86
2017-08-21T01:41:16.107Z,1016.87
2017-08-21T01:42:11.114Z,1016.85
2017-08-21T01:43:11.120Z,1016.82
2017-08-21T01:44:06.506Z,1016.85
2017-08-21T01:45:01.157Z,1016.84
2017-08-21T01:46:02.189Z,1016.80
2017-08-21T01:47:02.166Z,1016.82
2017-08-21T01:48:02.205Z,1016.84
2017-08-21T01:48:57.214Z,1016.84
2017-08-21T01:49:51.231Z,1016.84
2017-08-21T01:50:51.231Z,1016.80
2017-08-21T01:51:46.402Z,1016.82
2017-08-21T01:52:46.326Z,1016.82
2017-08-21T01:53:40.678Z,1016.80
2017-08-21T01:54:40.492Z,1016.85
2017-08-21T01:55:35.366Z,1016.81
2017-08-21T01:56:30.474Z,1016.83
2017-08-21T01:57:30.579Z,1016.82
2017-08-21T01:58:25.539Z,1016.85
2017-08-21T01:59:21.064Z,1016.86
2017-08-21T02:00:21.630Z,1016.88
2017-08-21T02:01:21.721Z,1016.85
2017-08-21T02:02:21.596Z,1016.85
2017-08-21T02:03:16.797Z,1016.84
2017-08-21T02:04:10.852Z,1016.85
2017-08-21T02:05:10.743Z,1016.87
2017-08-21T02:06:05.809Z,1016.84
2017-08-21T02:07:05.935Z,1016.84
2017-08-21T02:07:59.892Z,1016.83
2017-08-21T02:09:00.063Z,1016.81
2017-08-21T02:09:55.031Z,1016.84
2017-08-21T02:10:49.965Z,1016.83
2017-08-21T02:11:49.996Z,1016.83
2017-08-21T02:12:45.002Z,1016.85
2017-08-21T02:13:40.336Z,1016.84
2017-08-21T02:14:45.985Z,1016.86
2017-08-21T02:15:40.126Z,1016.86
2017-08-21T02:16:40.153Z,1016.85
2017-08-21T02:17:35.115Z,1016.83
2017-08-21T02:18:35.404Z,1016.83
2017-08-21T02:19:35.337Z,1016.79
2017-08-21T02:20:41.628Z,1016.81
2017-08-21T02:21:41.251Z,1016.84
2017-08-21T02:22:41.282Z,1016.83
2017-08-21T02:23:41.664Z,1016.81
2017-08-21T02:24:35.399Z,1016.83
2017-08-21T02:25:35.569Z,1016.83
2017-08-21T02:26:30.397Z,1016.85
2017-08-21T02:27:25.548Z,1016.82
2017-08-21T02:28:25.502Z,1016.85
2017-08-21T02:29:21.093Z,1016.80
2017-08-21T02:30:15.597Z,1016.84
2017-08-21T02:31:21.556Z,1016.81
2017-08-21T02:32:15.645Z,1016.83
2017-08-21T02:33:16.692Z,1016.85
2017-08-21T02:34:16.679Z,1016.84
2017-08-21T02:35:16.822Z,1016.84
2017-08-21T02:36:11.907Z,1016.85
2017-08-21T02:37:05.795Z,1016.83
2017-08-21T02:38:05.934Z,1016.84
2017-08-21T02:39:00.948Z,1016.85
2017-08-21T02:40:00.964Z,1016.87
2017-08-21T02:40:55.018Z,1016.86
2017-08-21T02:41:54.975Z,1016.83
2017-08-21T02:42:49.973Z,1016.74
2017-08-21T02:43:45.039Z,1016.77
2017-08-21T02:44:45.054Z,1016.76
2017-08-21T02:45:40.069Z,1016.76
2017-08-21T02:46:40.327Z,1016.76
2017-08-21T02:47:40.131Z,1016.78
2017-08-21T02:48:40.363Z,1016.83
2017-08-21T02:49:34.199Z,1016.79
2017-08-21T02:50:35.257Z,1016.78
2017-08-21T02:51:35.231Z,1016.79
2017-08-21T02:52:30.338Z,1016.76
2017-08-21T02:53:30.803Z,1016.76
2017-08-21T02:54:24.685Z,1016.80
2017-08-21T02:55:24.434Z,1016.77
2017-08-21T02:56:19.388Z,1016.80
2017-08-21T02:57:14.428Z,1016.82
2017-08-21T02:58:14.544Z,1016.76
2017-08-21T02:59:09.851Z,1016.78
2017-08-21T03:00:04.522Z,1016.78
2017-08-21T03:01:04.497Z,1016.77
2017-08-21T03:02:04.544Z,1016.76
2017-08-21T03:03:04.614Z,1016.74
2017-08-21T03:03:59.641Z,1016.79
2017-08-21T03:04:54.709Z,1016.78
2017-08-21T03:06:00.653Z,1016.79
2017-08-21T03:06:54.773Z,1016.82
2017-08-21T03:07:54.759Z,1016.78
2017-08-21T03:08:50.108Z,1016.81
2017-08-21T03:09:49.919Z,1016.79
2017-08-21T03:10:49.772Z,1016.83
2017-08-21T03:11:55.963Z,1016.81
2017-08-21T03:12:50.941Z,1016.81
2017-08-21T03:13:52.072Z,1016.81
2017-08-21T03:14:53.237Z,1016.82
2017-08-21T03:15:53.121Z,1016.78
2017-08-21T03:16:52.983Z,1016.79
2017-08-21T03:17:48.118Z,1016.77
2017-08-21T03:18:42.096Z,1016.76
2017-08-21T03:19:42.124Z,1016.75
2017-08-21T03:20:37.153Z,1016.76
2017-08-21T03:21:37.296Z,1016.78
2017-08-21T03:22:31.270Z,1016.79
2017-08-21T03:23:32.266Z,1016.80
2017-08-21T03:24:33.229Z,1016.79
2017-08-21T03:25:28.336Z,1016.77
2017-08-21T03:26:22.477Z,1016.81
2017-08-21T03:27:22.409Z,1016.80
2017-08-21T03:28:17.374Z,1016.83
2017-08-21T03:29:17.415Z,1016.83
2017-08-21T03:30:11.472Z,1016.81
2017-08-21T03:31:11.468Z,1016.84
2017-08-21T03:32:06.553Z,1016.83
2017-08-21T03:33:01.542Z,1016.82
2017-08-21T03:34:01.971Z,1016.86
2017-08-21T03:34:56.615Z,1016.88
2017-08-21T03:35:51.690Z,1016.86
2017-08-21T03:36:51.631Z,1016.88
2017-08-21T03:37:46.729Z,1016.85
2017-08-21T03:38:46.771Z,1016.87
2017-08-21T03:39:46.804Z,1016.83
2017-08-21T03:40:46.776Z,1016.89
2017-08-21T03:41:40.842Z,1016.89
2017-08-21T03:42:40.918Z,1016.87
2017-08-21T03:43:36.506Z,1016.86
2017-08-21T03:44:30.961Z,1016.89
2017-08-21T03:45:31.994Z,1016.91
2017-08-21T03:46:32.237Z,1016.91
2017-08-21T03:47:32.054Z,1016.91
2017-08-21T03:48:27.039Z,1016.89
2017-08-21T03:49:21.486Z,1016.90
2017-08-21T03:50:21.209Z,1016.89
2017-08-21T03:51:16.134Z,1016.89
2017-08-21T03:52:16.427Z,1016.86
2017-08-21T03:53:10.217Z,1016.88
2017-08-21T03:54:10.231Z,1016.86
2017-08-21T03:55:05.343Z,1016.88
2017-08-21T03:56:00.295Z,1016.87
2017-08-21T03:57:00.343Z,1016.85
2017-08-21T03:57:55.370Z,1016.84
2017-08-21T03:58:50.352Z,1016.82
2017-08-21T03:59:51.385Z,1016.83
2017-08-21T04:00:51.580Z,1016.81
2017-08-21T04:01:51.508Z,1016.84
2017-08-21T04:02:46.500Z,1016.85
2017-08-21T04:03:41.049Z,1016.82
2017-08-21T04:04:41.569Z,1016.83
2017-08-21T04:05:41.515Z,1016.84
2017-08-21T04:06:41.640Z,1016.85
2017-08-21T04:07:36.639Z,1016.81
2017-08-21T04:08:30.649Z,1016.83
2017-08-21T04:09:31.029Z,1016.86
2017-08-21T04:10:25.748Z,1016.83
2017-08-21T04:11:20.961Z,1016.85
2017-08-21T04:12:20.943Z,1016.84
2017-08-21T04:13:15.949Z,1016.83
2017-08-21T04:14:10.979Z,1016.86
2017-08-21T04:15:04.938Z,1016.85
2017-08-21T04:16:04.930Z,1016.88
2017-08-21T04:16:59.951Z,1016.82
2017-08-21T04:17:55.279Z,1016.80
2017-08-21T04:18:55.015Z,1016.83
2017-08-21T04:19:50.136Z,1016.82
2017-08-21T04:20:45.123Z,1016.84
2017-08-21T04:21:39.136Z,1016.83
2017-08-21T04:22:39.232Z,1016.86
2017-08-21T04:23:34.263Z,1016.81
2017-08-21T04:24:40.271Z,1016.84
2017-08-21T04:25:35.292Z,1016.85
2017-08-21T04:26:29.348Z,1016.81
2017-08-21T04:27:29.344Z,1016.86
2017-08-21T04:28:24.372Z,1016.87
2017-08-21T04:29:24.424Z,1016.86
2017-08-21T04:30:25.395Z,1016.92
2017-08-21T04:31:25.525Z,1016.89
2017-08-21T04:32:25.440Z,1016.87
2017-08-21T04:33:25.463Z,1016.87
2017-08-21T04:34:25.680Z,1016.88
2017-08-21T04:35:26.595Z,1016.88
2017-08-21T04:36:20.538Z,1016.86
2017-08-21T04:37:20.635Z,1016.88
2017-08-21T04:38:15.702Z,1016.89
2017-08-21T04:39:10.772Z,1016.92
2017-08-21T04:40:10.816Z,1016.95
2017-08-21T04:41:05.806Z,1016.98
2017-08-21T04:42:00.945Z,1016.94
2017-08-21T04:42:54.831Z,1016.97
2017-08-21T04:43:55.858Z,1016.95
2017-08-21T04:44:51.062Z,1016.94
2017-08-21T04:45:50.910Z,1016.96
2017-08-21T04:46:51.041Z,1016.94
2017-08-21T04:47:51.039Z,1016.94
2017-08-21T04:48:51.143Z,1016.93
2017-08-21T04:49:51.090Z,1016.93
2017-08-21T04:50:57.048Z,1016.92
2017-08-21T04:51:52.390Z,1016.97
2017-08-21T04:52:46.108Z,1016.96
2017-08-21T04:53:46.242Z,1016.98
2017-08-21T04:54:41.285Z,1017.02
2017-08-21T04:55:36.389Z,1017.01
2017-08-21T04:56:36.245Z,1017.03
2017-08-21T04:57:31.351Z,1016.99
2017-08-21T04:58:26.380Z,1017.02
2017-08-21T04:59:20.384Z,1017.04
2017-08-21T05:00:21.416Z,1017.02
2017-08-21T05:01:16.464Z,1017.03
2017-08-21T05:02:16.498Z,1017.01
2017-08-21T05:03:16.528Z,1017.03
2017-08-21T05:04:16.968Z,1017.01
2017-08-21T05:05:16.516Z,1017.03
2017-08-21T05:06:16.607Z,1017.01
2017-08-21T05:07:16.733Z,1017.02
2017-08-21T05:08:16.663Z,1017.05
2017-08-21T05:09:16.722Z,1017.01
2017-08-21T05:10:16.921Z,1017.01
2017-08-21T05:11:22.823Z,1017.01
2017-08-21T05:12:17.834Z,1017.05
2017-08-21T05:13:11.893Z,1017.06
2017-08-21T05:14:12.921Z,1017.09
2017-08-21T05:15:13.857Z,1017.11
2017-08-21T05:16:08.961Z,1017.07
2017-08-21T05:17:09.032Z,1017.10
2017-08-21T05:18:08.964Z,1017.09
2017-08-21T05:19:09.002Z,1017.12
2017-08-21T05:20:09.121Z,1017.13
2017-08-21T05:21:09.386Z,1017.10
2017-08-21T05:22:09.151Z,1017.11
2017-08-21T05:23:09.253Z,1017.10
2017-08-21T05:24:09.134Z,1017.11
2017-08-21T05:25:09.214Z,1017.13
2017-08-21T05:26:09.234Z,1017.09
2017-08-21T05:27:09.265Z,1017.12
2017-08-21T05:28:15.273Z,1017.12
2017-08-21T05:29:15.334Z,1017.13
2017-08-21T05:30:16.424Z,1017.14
2017-08-21T05:31:17.469Z,1017.14
2017-08-21T05:32:18.505Z,1017.15
2017-08-21T05:33:12.748Z,1017.12
2017-08-21T05:34:12.555Z,1017.08
2017-08-21T05:35:07.613Z,1017.11
2017-08-21T05:36:02.493Z,1017.09
2017-08-21T05:36:56.738Z,1017.11
2017-08-21T05:37:57.618Z,1017.13
2017-08-21T05:38:59.019Z,1017.14
2017-08-21T05:39:53.767Z,1017.16
2017-08-21T05:40:53.766Z,1017.12
2017-08-21T05:41:59.875Z,1017.14
2017-08-21T05:42:54.793Z,1017.11
2017-08-21T05:43:48.909Z,1017.14
2017-08-21T05:44:48.888Z,1017.16
2017-08-21T05:45:43.879Z,1017.20
2017-08-21T05:46:39.035Z,1017.19
2017-08-21T05:47:39.131Z,1017.25
2017-08-21T05:48:34.051Z,1017.20
2017-08-21T05:49:29.455Z,1017.24
2017-08-21T05:50:29.482Z,1017.30
2017-08-21T05:51:29.501Z,1017.27
2017-08-21T05:52:29.525Z,1017.25
2017-08-21T05:53:29.569Z,1017.28
2017-08-21T05:54:23.616Z,1017.21
2017-08-21T05:55:24.636Z,1017.26
2017-08-21T05:56:19.750Z,1017.26
2017-08-21T05:57:19.738Z,1017.27
2017-08-21T05:58:19.730Z,1017.24
2017-08-21T05:59:19.896Z,1017.27
2017-08-21T06:00:19.480Z,1017.29
2017-08-21T06:01:19.943Z,1017.26
2017-08-21T06:02:20.093Z,1017.32
2017-08-21T06:03:20.001Z,1017.27
2017-08-21T06:04:19.922Z,1017.32
2017-08-21T06:05:19.975Z,1017.32
2017-08-21T06:06:20.117Z,1017.30
2017-08-21T06:07:19.727Z,1017.30
2017-08-21T06:08:26.174Z,1017.30
2017-08-21T06:09:20.767Z,1017.32
2017-08-21T06:10:14.852Z,1017.34
2017-08-21T06:11:09.003Z,1017.32
2017-08-21T06:11:57.966Z,1017.34
2017-08-21T06:12:52.409Z,1017.37
2017-08-21T06:13:53.349Z,1017.37
2017-08-21T06:14:53.439Z,1017.38
2017-08-21T06:15:48.049Z,1017.37
2017-08-21T06:16:49.434Z,1017.38
2017-08-21T06:17:49.353Z,1017.36
2017-08-21T06:18:44.887Z,1017.37
2017-08-21T06:19:39.637Z,1017.41
2017-08-21T06:20:28.682Z,1017.38
2017-08-21T06:21:22.794Z,1017.40
2017-08-21T06:22:11.760Z,1017.42
2017-08-21T06:23:05.779Z,1017.45
2017-08-21T06:24:05.451Z,1017.43
2017-08-21T06:25:00.927Z,1017.42
2017-08-21T06:25:56.012Z,1017.48
2017-08-21T06:26:56.062Z,1017.49
2017-08-21T06:27:56.126Z,1017.45
2017-08-21T06:28:50.122Z,1017.49
2017-08-21T06:29:50.107Z,1017.46
2017-08-21T06:30:45.106Z,1017.49
2017-08-21T06:31:40.236Z,1017.53
2017-08-21T06:32:34.225Z,1017.54
2017-08-21T06:33:34.343Z,1017.54
2017-08-21T06:34:29.368Z,1017.52
2017-08-21T06:35:29.405Z,1017.51
2017-08-21T06:36:29.456Z,1017.51
2017-08-21T06:37:29.449Z,1017.51
2017-08-21T06:38:23.607Z,1017.53
2017-08-21T06:39:17.638Z,1017.51
2017-08-21T06:40:12.671Z,1017.54
2017-08-21T06:41:12.668Z,1017.54
2017-08-21T06:42:01.776Z,1017.57
2017-08-21T06:42:50.822Z,1017.55
2017-08-21T06:43:38.878Z,1017.58
2017-08-21T06:44:32.954Z,1017.55
2017-08-21T06:45:32.888Z,1017.57
2017-08-21T06:46:28.060Z,1017.56
2017-08-21T06:47:23.005Z,1017.64
2017-08-21T06:48:23.077Z,1017.65
2017-08-21T06:49:28.983Z,1017.60
2017-08-21T06:50:24.402Z,1017.65
2017-08-21T06:51:18.193Z,1017.67
2017-08-21T06:52:24.217Z,1017.66
2017-08-21T06:53:18.222Z,1017.68
2017-08-21T06:54:19.382Z,1017.66
2017-08-21T06:55:14.368Z,1017.67
2017-08-21T06:56:14.364Z,1017.70
2017-08-21T06:57:20.540Z,1017.73
2017-08-21T06:58:15.397Z,1017.70
2017-08-21T06:59:09.682Z,1017.65
2017-08-21T07:00:09.552Z,1017.70
2017-08-21T07:01:04.689Z,1017.68
2017-08-21T07:01:59.777Z,1017.70
2017-08-21T07:02:59.750Z,1017.68
2017-08-21T07:03:54.734Z,1017.68
2017-08-21T07:04:49.769Z,1017.67
2017-08-21T07:05:43.855Z,1017.69
2017-08-21T07:06:44.934Z,1017.70
2017-08-21T07:07:39.957Z,1017.69
2017-08-21T07:08:40.040Z,1017.70
2017-08-21T07:09:27.955Z,1017.71
2017-08-21T07:10:22.104Z,1017.70
2017-08-21T07:11:16.130Z,1017.66
2017-08-21T07:12:04.091Z,1017.69
2017-08-21T07:12:52.198Z,1017.71
2017-08-21T07:13:40.308Z,1017.70
2017-08-21T07:14:40.309Z,1017.71
2017-08-21T07:15:35.331Z,1017.70
2017-08-21T07:16:29.431Z,1017.70
2017-08-21T07:17:17.469Z,1017.71
2017-08-21T07:18:05.479Z,1017.68
2017-08-21T07:18:59.647Z,1017.70
2017-08-21T07:19:48.703Z,1017.70
2017-08-21T07:20:37.726Z,1017.71
2017-08-21T07:21:25.736Z,1017.69
2017-08-21T07:22:20.855Z,1017.73
2017-08-21T07:23:20.823Z,1017.69
2017-08-21T07:24:15.038Z,1017.70
2017-08-21T07:25:03.932Z,1017.70
2017-08-21T07:25:57.993Z,1017.72
2017-08-21T07:26:53.099Z,1017.71
2017-08-21T07:27:47.101Z,1017.68
2017-08-21T07:28:42.245Z,1017.66
2017-08-21T07:29:36.254Z,1017.67
2017-08-21T07:30:30.181Z,1017.71
2017-08-21T07:31:30.324Z,1017.68
2017-08-21T07:32:30.349Z,1017.68
2017-08-21T07:33:25.392Z,1017.65
2017-08-21T07:34:25.475Z,1017.65
2017-08-21T07:35:14.416Z,1017.69
2017-08-21T07:36:03.663Z,1017.67
2017-08-21T07:36:57.563Z,1017.64
2017-08-21T07:37:51.704Z,1017.65
2017-08-21T07:38:46.743Z,1017.65
2017-08-21T07:39:41.824Z,1017.65
2017-08-21T07:40:30.870Z,1017.66
2017-08-21T07:41:25.869Z,1017.65
2017-08-21T07:42:25.987Z,1017.63
2017-08-21T07:43:20.975Z,1017.65
2017-08-21T07:44:10.066Z,1017.64
2017-08-21T07:45:05.106Z,1017.65
2017-08-21T07:45:54.083Z,1017.65
2017-08-21T07:46:43.159Z,1017.69
2017-08-21T07:47:37.179Z,1017.66
2017-08-21T07:48:26.279Z,1017.70
2017-08-21T07:49:20.438Z,1017.67
2017-08-21T07:50:14.477Z,1017.70
2017-08-21T07:51:03.461Z,1017.73
2017-08-21T07:52:03.550Z,1017.74
2017-08-21T07:52:57.552Z,1017.75
2017-08-21T07:53:57.622Z,1017.72
2017-08-21T07:54:45.721Z,1017.75
2017-08-21T07:55:45.766Z,1017.77
2017-08-21T07:56:40.696Z,1017.76
2017-08-21T07:57:34.883Z,1017.80
2017-08-21T07:58:34.914Z,1017.82
2017-08-21T07:59:28.931Z,1017.82
2017-08-21T08:00:18.072Z,1017.84
2017-08-21T08:01:12.118Z,1017.83
2017-08-21T08:02:07.108Z,1017.82
2017-08-21T08:03:01.305Z,1017.82
2017-08-21T08:03:55.123Z,1017.81
2017-08-21T08:04:44.317Z,1017.79
2017-08-21T08:05:33.313Z,1017.83
2017-08-21T08:06:21.423Z,1017.83
2017-08-21T08:07:22.452Z,1017.84
2017-08-21T08:08:10.466Z,1017.82
2017-08-21T08:08:59.541Z,1017.78
2017-08-21T08:09:53.484Z,1017.77
2017-08-21T08:10:48.630Z,1017.72
2017-08-21T08:11:43.757Z,1017.73
2017-08-21T08:12:32.755Z,1017.78
2017-08-21T08:13:21.736Z,1017.76
2017-08-21T08:14:16.862Z,1017.79
2017-08-21T08:15:10.920Z,1017.74
2017-08-21T08:16:05.938Z,1017.78
2017-08-21T08:17:01.110Z,1017.77
2017-08-21T08:17:50.140Z,1017.78
2017-08-21T08:18:44.133Z,1017.76
2017-08-21T08:19:44.155Z,1017.75
2017-08-21T08:20:38.236Z,1017.82
2017-08-21T08:21:38.244Z,1017.80
2017-08-21T08:22:33.427Z,1017.80
2017-08-21T08:23:28.392Z,1017.82
2017-08-21T08:24:22.512Z,1017.77
2017-08-21T08:25:22.596Z,1017.79
2017-08-21T08:26:17.661Z,1017.76
2017-08-21T08:27:11.849Z,1017.80
2017-08-21T08:28:05.834Z,1017.78
2017-08-21T08:28:54.836Z,1017.83
2017-08-21T08:29:42.922Z,1017.80
2017-08-21T08:30:42.937Z,1017.85
2017-08-21T08:31:30.893Z,1017.82
2017-08-21T08:32:30.999Z,1017.82
2017-08-21T08:33:25.053Z,1017.84
2017-08-21T08:34:19.092Z,1017.84
2017-08-21T08:35:13.222Z,1017.75
2017-08-21T08:36:08.249Z,1017.81
2017-08-21T08:37:02.326Z,1017.85
2017-08-21T08:37:50.409Z,1017.89
2017-08-21T08:38:51.379Z,1017.87
2017-08-21T08:39:46.489Z,1017.87
2017-08-21T08:40:40.499Z,1017.87
2017-08-21T08:41:29.500Z,1017.74
2017-08-21T08:42:23.706Z,1017.89
2017-08-21T08:43:11.709Z,1017.84
2017-08-21T08:44:00.778Z,1017.85
2017-08-21T08:44:55.841Z,1017.84
2017-08-21T08:45:49.896Z,1017.84
2017-08-21T08:46:49.910Z,1017.93
2017-08-21T08:47:44.043Z,1017.89
2017-08-21T08:48:44.209Z,1017.92
2017-08-21T08:49:33.122Z,1017.85
2017-08-21T08:50:28.135Z,1017.81
2017-08-21T08:51:17.161Z,1017.77
2017-08-21T08:52:17.239Z,1017.64
2017-08-21T08:53:11.371Z,1017.72
2017-08-21T08:54:11.288Z,1017.78
2017-08-21T08:55:00.370Z,1017.80
2017-08-21T08:55:55.595Z,1017.81
2017-08-21T08:56:43.517Z,1017.95
2017-08-21T08:57:44.609Z,1017.92
2017-08-21T08:58:38.557Z,1017.81
2017-08-21T08:59:33.657Z,1017.89
2017-08-21T09:00:28.036Z,1017.93
2017-08-21T09:01:21.844Z,1017.90
2017-08-21T09:02:15.875Z,1017.92
2017-08-21T09:03:10.843Z,1017.88
2017-08-21T09:03:58.901Z,1017.87
2017-08-21T09:04:54.090Z,1017.90
2017-08-21T09:05:55.343Z,1017.88
2017-08-21T09:06:50.150Z,1017.89
2017-08-21T09:07:44.188Z,1017.96
2017-08-21T09:08:45.246Z,1017.80
2017-08-21T09:09:40.267Z,1017.83
2017-08-21T09:10:35.423Z,1017.78
2017-08-21T09:11:24.425Z,1018.02
2017-08-21T09:12:18.381Z,1018.02
2017-08-21T09:13:12.493Z,1017.97
2017-08-21T09:14:00.622Z,1018.00
2017-08-21T09:14:49.722Z,1017.93
2017-08-21T09:15:43.741Z,1017.92
2017-08-21T09:16:37.772Z,1017.92
2017-08-21T09:17:26.750Z,1017.77
2017-08-21T09:18:20.903Z,1017.82
2017-08-21T09:19:15.905Z,1017.86
2017-08-21T09:20:10.018Z,1017.88
2017-08-21T09:21:04.078Z,1018.08
2017-08-21T09:21:59.153Z,1018.05
2017-08-21T09:22:53.191Z,1017.91
2017-08-21T09:23:47.359Z,1017.98
2017-08-21T09:24:42.332Z,1017.90
2017-08-21T09:25:30.301Z,1017.96
2017-08-21T09:26:18.378Z,1018.16
2017-08-21T09:27:12.557Z,1018.07
2017-08-21T09:28:06.514Z,1018.21
2017-08-21T09:29:06.671Z,1018.24
2017-08-21T09:29:55.700Z,1018.11
2017-08-21T09:30:44.694Z,1018.12
2017-08-21T09:31:39.798Z,1018.35
2017-08-21T09:32:34.835Z,1018.03
2017-08-21T09:33:34.904Z,1018.02
2017-08-21T09:34:29.892Z,1018.11
2017-08-21T09:35:24.064Z,1018.17
2017-08-21T09:36:19.045Z,1018.26
2017-08-21T09:37:13.079Z,1018.20
2017-08-21T09:38:01.993Z,1018.25
2017-08-21T09:38:57.105Z,1018.20
2017-08-21T09:39:46.138Z,1018.10
2017-08-21T09:40:40.211Z,1018.12
2017-08-21T09:41:34.280Z,1018.15
2017-08-21T09:42:34.406Z,1018.05
2017-08-21T09:43:28.520Z,1018.11
2017-08-21T09:44:28.511Z,1018.02
2017-08-21T09:45:17.476Z,1018.05
2017-08-21T09:46:12.599Z,1018.19
2017-08-21T09:47:00.606Z,1018.16
2017-08-21T09:48:00.641Z,1018.12
2017-08-21T09:48:54.690Z,1018.18
2017-08-21T09:49:48.749Z,1018.14
2017-08-21T09:50:37.816Z,1018.16
2017-08-21T09:51:26.978Z,1018.03
2017-08-21T09:52:21.921Z,1017.89
2017-08-21T09:53:16.113Z,1017.75
2017-08-21T09:54:10.085Z,1017.78
2017-08-21T09:55:04.152Z,1017.85
2017-08-21T09:55:58.247Z,1017.90
2017-08-21T09:56:58.249Z,1018.04
2017-08-21T09:57:58.276Z,1017.98
2017-08-21T09:58:58.414Z,1017.92
2017-08-21T09:59:53.436Z,1017.95
2017-08-21T10:00:47.415Z,1017.98
2017-08-21T10:01:35.577Z,1017.94
2017-08-21T10:02:29.574Z,1017.94
2017-08-21T10:03:23.559Z,1017.95
2017-08-21T10:04:24.713Z,1017.94
2017-08-21T10:05:19.785Z,1017.98
2017-08-21T10:06:14.884Z,1017.98
2017-08-21T10:07:03.861Z,1017.84
2017-08-21T10:07:57.987Z,1017.80
2017-08-21T10:08:53.117Z,1017.70
2017-08-21T10:09:54.067Z,1017.80
2017-08-21T10:10:48.076Z,1017.82
2017-08-21T10:11:42.134Z,1017.75
2017-08-21T10:12:36.198Z,1017.73
2017-08-21T10:13:30.276Z,1017.73
2017-08-21T10:14:24.408Z,1017.78
2017-08-21T10:15:18.387Z,1017.80
2017-08-21T10:16:19.569Z,1017.76
2017-08-21T10:17:13.539Z,1017.86
2017-08-21T10:18:07.633Z,1017.86
2017-08-21T10:19:07.655Z,1017.94
2017-08-21T10:19:56.743Z,1017.90
2017-08-21T10:20:57.059Z,1017.85
2017-08-21T10:21:45.751Z,1017.88
2017-08-21T10:22:39.851Z,1017.87
2017-08-21T10:23:39.871Z,1017.83
2017-08-21T10:24:34.895Z,1017.68
2017-08-21T10:25:29.059Z,1017.71
2017-08-21T10:26:24.125Z,1017.76
2017-08-21T10:27:18.125Z,1017.81
2017-08-21T10:28:06.153Z,1017.80
2017-08-21T10:29:00.257Z,1017.82
2017-08-21T10:29:54.393Z,1017.99
2017-08-21T10:30:54.336Z,1017.91
2017-08-21T10:31:43.350Z,1017.79
2017-08-21T10:32:38.425Z,1017.85
2017-08-21T10:33:32.569Z,1018.02
2017-08-21T10:34:27.668Z,1018.00
2017-08-21T10:35:22.608Z,1018.08
2017-08-21T10:36:10.586Z,1018.10
2017-08-21T10:37:05.911Z,1018.09
2017-08-21T10:37:59.874Z,1018.06
2017-08-21T10:38:54.902Z,1018.03
2017-08-21T10:39:43.997Z,1017.94
2017-08-21T10:40:37.964Z,1017.97
2017-08-21T10:41:32.009Z,1017.93
2017-08-21T10:42:21.025Z,1017.90
2017-08-21T10:43:15.132Z,1017.98
2017-08-21T10:44:04.179Z,1018.19
2017-08-21T10:44:58.161Z,1018.13
2017-08-21T10:45:52.310Z,1018.06
2017-08-21T10:46:52.368Z,1018.11
2017-08-21T10:47:41.425Z,1018.06
2017-08-21T10:48:35.445Z,1017.93
2017-08-21T10:49:29.441Z,1017.77
2017-08-21T10:50:23.567Z,1017.87
2017-08-21T10:51:12.619Z,1017.84
2017-08-21T10:52:00.774Z,1017.87
2017-08-21T10:52:48.810Z,1017.84
2017-08-21T10:53:42.855Z,1017.80
2017-08-21T10:54:42.763Z,1017.88
2017-08-21T10:55:36.931Z,1017.74
2017-08-21T10:56:30.994Z,1017.78
2017-08-21T10:57:37.017Z,1017.67
2017-08-21T10:58:31.205Z,1017.76
2017-08-21T10:59:25.138Z,1017.86
2017-08-21T11:00:19.239Z,1017.84
2017-08-21T11:01:13.349Z,1017.71
2017-08-21T11:02:07.283Z,1017.78
2017-08-21T11:02:56.420Z,1017.74
2017-08-21T11:03:45.532Z,1017.78
2017-08-21T11:04:45.462Z,1017.87
2017-08-21T11:05:39.620Z,1017.91
2017-08-21T11:06:28.591Z,1017.94
2017-08-21T11:07:16.656Z,1017.86
2017-08-21T11:08:10.683Z,1017.82
2017-08-21T11:08:58.754Z,1017.80
2017-08-21T11:09:46.805Z,1017.75
2017-08-21T11:10:35.804Z,1017.95
2017-08-21T11:11:30.921Z,1017.96
2017-08-21T11:12:24.954Z,1017.93
2017-08-21T11:13:19.032Z,1017.82
2017-08-21T11:14:08.302Z,1017.78
2017-08-21T11:15:03.238Z,1017.75
2017-08-21T11:15:51.214Z,1017.69
2017-08-21T11:16:46.262Z,1017.64
2017-08-21T11:17:35.359Z,1017.65
2017-08-21T11:18:24.384Z,1017.57
2017-08-21T11:19:18.494Z,1017.57